createdAt,value
2019-03-22T00:01:18.229Z,105.70
2019-03-22T00:03:48.436Z,110.78
2019-03-22T00:06:18.714Z,94.23
2019-03-22T00:08:48.995Z,91.90
2019-03-22T00:11:19.203Z,111.17
2019-03-22T00:13:49.398Z,97.93
2019-03-22T00:16:19.613Z,97.00
2019-03-22T00:18:49.821Z,93.70
2019-03-22T00:21:20.044Z,103.13
2019-03-22T00:23:50.259Z,99.80
2019-03-22T00:26:20.486Z,93.40
2019-03-22T00:28:50.698Z,101.20
2019-03-22T00:31:20.932Z,102.85
2019-03-22T00:33:51.148Z,109.90
2019-03-22T00:36:21.372Z,91.27
2019-03-22T00:38:51.584Z,109.17
2019-03-22T00:41:21.816Z,101.47
2019-03-22T00:43:52.085Z,99.33
2019-03-22T00:46:22.308Z,103.17
2019-03-22T00:48:52.520Z,111.00
2019-03-22T00:51:22.745Z,102.50
2019-03-22T00:53:52.997Z,107.83
2019-03-22T00:56:23.261Z,96.92
2019-03-22T00:58:53.464Z,91.23
2019-03-22T01:01:23.694Z,99.77
2019-03-22T01:03:53.911Z,106.27
2019-03-22T01:06:24.119Z,81.77
2019-03-22T01:08:54.330Z,89.37
2019-03-22T01:11:24.553Z,94.50
2019-03-22T01:13:54.751Z,99.27
2019-03-22T01:16:25.116Z,117.73
2019-03-22T01:18:55.399Z,98.25
2019-03-22T01:21:25.624Z,105.37
2019-03-22T01:23:55.847Z,102.83
2019-03-22T01:26:26.067Z,93.07
2019-03-22T01:28:56.272Z,107.03
2019-03-22T01:31:26.494Z,90.40
2019-03-22T01:33:56.703Z,106.30
2019-03-22T01:36:26.919Z,118.13
2019-03-22T01:38:57.148Z,105.10
2019-03-22T01:41:27.355Z,90.43
2019-03-22T01:43:57.557Z,94.50
2019-03-22T01:46:27.782Z,85.33
2019-03-22T01:48:58.000Z,108.40
2019-03-22T01:51:28.293Z,97.23
2019-03-22T01:53:58.535Z,107.15
2019-03-22T01:56:28.758Z,100.07
2019-03-22T01:58:58.970Z,120.20
2019-03-22T02:01:29.190Z,95.85
2019-03-22T02:03:59.414Z,94.73
2019-03-22T02:06:29.692Z,102.83
2019-03-22T02:08:59.918Z,112.33
2019-03-22T02:11:30.125Z,124.40
2019-03-22T02:14:00.355Z,100.57
2019-03-22T02:16:30.571Z,93.03
2019-03-22T02:19:00.948Z,104.50
2019-03-22T02:21:31.161Z,116.97
2019-03-22T02:24:01.458Z,101.83
2019-03-22T02:26:32.011Z,121.13
2019-03-22T02:29:02.232Z,106.80
2019-03-22T02:31:32.531Z,118.60
2019-03-22T02:34:02.760Z,104.27
2019-03-22T02:36:32.973Z,104.30
2019-03-22T02:39:03.635Z,108.03
2019-03-22T02:41:34.392Z,111.80
2019-03-22T02:44:04.637Z,121.00
2019-03-22T02:46:35.803Z,110.97
2019-03-22T02:49:06.038Z,113.77
2019-03-22T02:51:36.248Z,112.90
2019-03-22T02:54:06.587Z,136.20
2019-03-22T02:56:37.777Z,102.83
2019-03-22T02:59:08.183Z,101.60
2019-03-22T03:01:38.421Z,121.50
2019-03-22T03:04:08.658Z,115.43
2019-03-22T03:06:38.867Z,99.57
2019-03-22T03:09:09.096Z,87.57
2019-03-22T03:11:39.312Z,118.10
2019-03-22T03:14:10.480Z,114.37
2019-03-22T03:16:40.699Z,105.67
2019-03-22T03:19:10.972Z,139.80
2019-03-22T03:21:41.179Z,96.93
2019-03-22T03:24:11.680Z,108.60
2019-03-22T03:26:41.895Z,102.27
2019-03-22T03:29:12.353Z,123.00
2019-03-22T03:31:42.584Z,149.90
2019-03-22T03:34:12.805Z,104.45
2019-03-22T03:36:43.293Z,177.17
2019-03-22T03:39:13.513Z,86.80
2019-03-22T03:41:44.089Z,84.67
2019-03-22T03:44:14.361Z,101.07
2019-03-22T03:46:44.607Z,99.52
2019-03-22T03:49:14.798Z,149.12
2019-03-22T03:51:45.031Z,113.23
2019-03-22T03:54:15.224Z,134.87
2019-03-22T03:56:46.407Z,100.07
2019-03-22T03:59:16.608Z,113.08
2019-03-22T04:01:46.826Z,121.70
2019-03-22T04:04:17.265Z,116.20
2019-03-22T04:06:47.734Z,157.80
2019-03-22T04:09:17.938Z,164.07
2019-03-22T04:11:48.152Z,101.27
2019-03-22T04:14:18.358Z,229.10
2019-03-22T04:16:48.568Z,115.37
2019-03-22T04:19:18.810Z,108.80
2019-03-22T04:21:49.291Z,110.67
2019-03-22T04:24:19.520Z,131.50
2019-03-22T04:26:49.716Z,99.72
2019-03-22T04:29:19.954Z,121.82
2019-03-22T04:31:50.164Z,100.63
2019-03-22T04:34:20.372Z,100.17
2019-03-22T04:36:50.580Z,100.57
2019-03-22T04:39:20.774Z,110.78
2019-03-22T04:41:50.978Z,116.63
2019-03-22T04:44:21.174Z,96.45
2019-03-22T04:46:51.935Z,122.03
2019-03-22T04:49:23.078Z,97.67
2019-03-22T04:51:55.125Z,95.20
2019-03-22T04:54:28.637Z,104.97
2019-03-22T04:56:59.204Z,135.67
2019-03-22T04:59:30.145Z,96.73
2019-03-22T05:02:02.480Z,104.43
2019-03-22T05:04:34.233Z,85.00
2019-03-22T05:07:05.970Z,106.23
2019-03-22T05:09:37.733Z,108.73
2019-03-22T05:12:10.843Z,107.73
2019-03-22T05:14:43.093Z,104.73
2019-03-22T05:17:15.158Z,132.97
2019-03-22T05:19:50.820Z,89.47
2019-03-22T05:22:23.037Z,139.17
2019-03-22T05:24:55.107Z,107.20
2019-03-22T05:27:26.564Z,87.20
2019-03-22T05:29:59.267Z,100.43
2019-03-22T05:32:29.502Z,122.83
2019-03-22T05:34:59.704Z,77.87
2019-03-22T05:37:30.154Z,93.43
2019-03-22T05:40:00.428Z,142.10
2019-03-22T05:42:30.593Z,204.53
2019-03-22T05:45:00.786Z,119.87
2019-03-22T05:47:30.997Z,85.33
2019-03-22T05:50:01.196Z,116.17
2019-03-22T05:52:31.414Z,115.27
2019-03-22T05:55:01.694Z,120.87
2019-03-22T05:57:31.887Z,83.17
2019-03-22T06:00:02.222Z,146.50
2019-03-22T06:02:32.505Z,78.93
2019-03-22T06:05:02.728Z,99.90
2019-03-22T06:07:32.929Z,110.23
2019-03-22T06:10:03.153Z,97.53
2019-03-22T06:12:33.354Z,85.20
2019-03-22T06:15:04.366Z,109.93
2019-03-22T06:17:34.599Z,107.87
2019-03-22T06:20:05.904Z,152.17
2019-03-22T06:22:36.164Z,88.27
2019-03-22T06:25:06.764Z,150.67
2019-03-22T06:27:36.958Z,138.23
2019-03-22T06:30:08.436Z,87.83
2019-03-22T06:32:38.788Z,91.67
2019-03-22T06:35:09.153Z,96.20
2019-03-22T06:37:39.373Z,93.47
2019-03-22T06:40:09.864Z,97.97
2019-03-22T06:42:40.058Z,83.77
2019-03-22T06:45:10.485Z,77.20
2019-03-22T06:47:40.691Z,103.57
2019-03-22T06:50:11.253Z,77.87
2019-03-22T06:52:41.461Z,86.82
2019-03-22T06:55:11.814Z,100.10
2019-03-22T06:57:42.096Z,76.80
2019-03-22T07:00:12.466Z,79.93
2019-03-22T07:02:42.671Z,132.30
2019-03-22T07:05:13.795Z,106.13
2019-03-22T07:07:44.025Z,101.90
2019-03-22T07:10:14.404Z,76.20
2019-03-22T07:12:44.604Z,89.13
2019-03-22T07:15:14.979Z,86.87
2019-03-22T07:17:45.178Z,80.60
2019-03-22T07:20:15.476Z,87.90
2019-03-22T07:22:45.923Z,81.37
2019-03-22T07:25:16.403Z,92.45
2019-03-22T07:27:46.601Z,85.97
2019-03-22T07:30:19.096Z,78.33
2019-03-22T07:32:50.426Z,84.00
2019-03-22T07:35:23.545Z,92.67
2019-03-22T07:37:53.745Z,84.27
2019-03-22T07:40:23.991Z,82.80
2019-03-22T07:42:54.182Z,89.13
2019-03-22T07:45:24.432Z,84.53
2019-03-22T07:47:55.881Z,84.50
2019-03-22T07:50:26.289Z,75.50
2019-03-22T07:52:56.499Z,88.03
2019-03-22T07:55:26.751Z,97.43
2019-03-22T07:57:56.948Z,96.17
2019-03-22T08:00:31.152Z,77.47
2019-03-22T08:02:59.345Z,78.73
2019-03-22T08:05:29.557Z,87.27
2019-03-22T08:07:59.782Z,83.93
2019-03-22T08:10:30.006Z,86.23
2019-03-22T08:13:00.245Z,78.00
2019-03-22T08:15:32.144Z,82.97
2019-03-22T08:18:02.713Z,73.40
2019-03-22T08:20:32.911Z,82.57
2019-03-22T08:23:04.693Z,82.97
2019-03-22T08:25:34.901Z,80.40
2019-03-22T08:28:05.693Z,85.30
2019-03-22T08:30:42.929Z,78.93
2019-03-22T08:33:08.815Z,87.47
2019-03-22T08:35:39.114Z,78.23
2019-03-22T08:38:09.282Z,79.13
2019-03-22T08:40:39.496Z,79.73
2019-03-22T08:43:09.801Z,76.43
2019-03-22T08:45:40.016Z,72.70
2019-03-22T08:48:10.214Z,77.17
2019-03-22T08:50:40.416Z,75.20
2019-03-22T08:53:10.818Z,72.53
2019-03-22T08:55:41.019Z,69.20
2019-03-22T08:58:11.286Z,75.62
2019-03-22T09:00:41.599Z,69.23
2019-03-22T09:03:11.888Z,63.37
2019-03-22T09:05:42.099Z,62.73
2019-03-22T09:08:12.333Z,67.43
2019-03-22T09:10:42.621Z,73.17
2019-03-22T09:13:12.859Z,68.40
2019-03-22T09:15:43.046Z,63.10
2019-03-22T09:18:15.531Z,61.20
2019-03-22T09:20:46.279Z,62.93
2019-03-22T09:23:16.466Z,68.92
2019-03-22T09:25:46.772Z,58.37
2019-03-22T09:28:17.006Z,57.17
2019-03-22T09:30:47.297Z,60.67
2019-03-22T09:33:17.474Z,54.03
2019-03-22T09:35:48.799Z,58.73
2019-03-22T09:38:18.962Z,53.83
2019-03-22T09:40:49.406Z,52.77
2019-03-22T09:43:19.606Z,56.02
2019-03-22T09:45:49.838Z,52.83
2019-03-22T09:48:20.103Z,48.13
2019-03-22T09:50:50.395Z,48.70
2019-03-22T09:53:20.592Z,49.73
2019-03-22T09:55:50.913Z,46.87
2019-03-22T09:58:21.126Z,45.17
2019-03-22T10:00:51.395Z,44.53
2019-03-22T10:03:21.557Z,46.53
2019-03-22T10:05:52.050Z,44.60
2019-03-22T10:08:22.242Z,43.85
2019-03-22T10:10:52.460Z,44.00
2019-03-22T10:13:22.697Z,43.40
2019-03-22T10:15:52.891Z,46.10
2019-03-22T10:18:23.364Z,45.73
2019-03-22T10:20:53.619Z,45.27
2019-03-22T10:23:23.892Z,41.20
2019-03-22T10:25:54.074Z,41.87
2019-03-22T10:28:24.309Z,41.20
2019-03-22T10:30:54.539Z,40.17
2019-03-22T10:33:24.790Z,36.90
2019-03-22T10:35:55.320Z,37.27
2019-03-22T10:38:31.928Z,33.43
2019-03-22T10:40:57.448Z,33.97
2019-03-22T10:43:33.553Z,31.77
2019-03-22T10:46:09.359Z,35.40
2019-03-22T10:48:40.879Z,35.10
2019-03-22T10:51:11.197Z,34.13
2019-03-22T10:53:41.468Z,31.13
2019-03-22T10:56:12.756Z,32.17
2019-03-22T10:58:43.035Z,30.03
2019-03-22T11:01:13.524Z,28.17
2019-03-22T11:03:43.759Z,31.53
2019-03-22T11:06:14.029Z,30.47
2019-03-22T11:08:44.491Z,31.93
2019-03-22T11:11:14.706Z,31.17
2019-03-22T11:13:44.927Z,27.77
2019-03-22T11:16:15.207Z,29.75
2019-03-22T11:18:45.494Z,29.13
2019-03-22T11:21:15.739Z,29.90
2019-03-22T11:23:46.028Z,28.23
2019-03-22T11:26:16.232Z,23.27
2019-03-22T11:28:46.455Z,25.30
2019-03-22T11:31:16.777Z,22.93
2019-03-22T11:33:46.993Z,22.50
2019-03-22T11:36:17.249Z,27.55
2019-03-22T11:38:47.434Z,21.40
2019-03-22T11:41:17.665Z,19.97
2019-03-22T11:43:47.883Z,22.03
2019-03-22T11:46:18.179Z,17.05
2019-03-22T11:48:48.471Z,18.13
2019-03-22T11:51:18.760Z,21.75
2019-03-22T11:53:49.262Z,21.03
2019-03-22T11:56:19.495Z,18.07
2019-03-22T11:58:49.717Z,17.20
2019-03-22T12:01:22.307Z,18.50
2019-03-22T12:03:51.941Z,17.60
2019-03-22T12:06:22.146Z,16.87
2019-03-22T12:08:52.350Z,18.07
2019-03-22T12:11:22.574Z,18.23
2019-03-22T12:13:52.891Z,15.63
2019-03-22T12:16:23.124Z,15.90
2019-03-22T12:18:53.342Z,14.97
2019-03-22T12:21:23.641Z,14.63
2019-03-22T12:23:53.863Z,15.43
2019-03-22T12:26:24.090Z,14.40
2019-03-22T12:28:54.326Z,12.13
2019-03-22T12:31:24.537Z,13.33
2019-03-22T12:33:54.798Z,12.13
2019-03-22T12:36:25.013Z,13.33
2019-03-22T12:38:55.252Z,14.30
2019-03-22T12:41:25.462Z,11.90
2019-03-22T12:43:55.688Z,15.40
2019-03-22T12:46:25.904Z,14.93
2019-03-22T12:48:56.114Z,13.13
2019-03-22T12:51:26.331Z,13.23
2019-03-22T12:53:56.590Z,14.80
2019-03-22T12:56:26.886Z,12.53
2019-03-22T12:58:57.102Z,12.43
2019-03-22T13:01:28.432Z,11.93
2019-03-22T13:03:58.701Z,13.43
2019-03-22T13:06:28.921Z,13.97
2019-03-22T13:08:59.134Z,14.13
2019-03-22T13:11:29.365Z,16.33
2019-03-22T13:13:59.654Z,13.50
2019-03-22T13:16:29.873Z,12.53
2019-03-22T13:19:00.100Z,12.97
2019-03-22T13:21:30.322Z,12.90
2019-03-22T13:24:00.554Z,13.80
2019-03-22T13:26:31.747Z,12.70
2019-03-22T13:29:01.966Z,13.63
2019-03-22T13:31:32.178Z,13.37
2019-03-22T13:34:02.652Z,13.70
2019-03-22T13:36:32.896Z,14.43
2019-03-22T13:39:03.910Z,14.47
2019-03-22T13:41:34.309Z,15.00
2019-03-22T13:44:05.534Z,14.23
2019-03-22T13:46:40.217Z,11.77
2019-03-22T13:49:07.693Z,12.47
2019-03-22T13:51:37.924Z,14.30
2019-03-22T13:54:08.159Z,16.30
2019-03-22T13:56:38.381Z,16.07
2019-03-22T13:59:08.636Z,14.43
2019-03-22T14:01:38.843Z,17.57
2019-03-22T14:04:09.287Z,13.63
2019-03-22T14:06:39.505Z,15.17
2019-03-22T14:09:09.929Z,15.60
2019-03-22T14:11:40.378Z,15.77
2019-03-22T14:14:10.568Z,20.13
2019-03-22T14:16:40.777Z,17.73
2019-03-22T14:19:10.972Z,15.73
2019-03-22T14:21:41.166Z,15.20
2019-03-22T14:24:11.631Z,20.17
2019-03-22T14:26:41.814Z,18.67
2019-03-22T14:29:12.031Z,14.20
2019-03-22T14:31:42.485Z,13.00
2019-03-22T14:34:12.756Z,15.90
2019-03-22T14:36:42.970Z,14.77
2019-03-22T14:39:14.136Z,13.53
2019-03-22T14:41:44.365Z,15.27
2019-03-22T14:44:14.565Z,14.60
2019-03-22T14:46:44.765Z,16.30
2019-03-22T14:49:14.976Z,17.87
2019-03-22T14:51:45.328Z,14.33
2019-03-22T14:54:15.527Z,14.03
2019-03-22T14:56:45.752Z,14.67
2019-03-22T14:59:16.210Z,13.90
2019-03-22T15:01:46.423Z,15.57
2019-03-22T15:04:16.647Z,14.43
2019-03-22T15:06:46.949Z,15.80
2019-03-22T15:09:17.304Z,14.40
2019-03-22T15:11:47.503Z,14.47
2019-03-22T15:14:36.732Z,15.50
2019-03-22T15:17:19.811Z,15.33
2019-03-22T15:20:05.338Z,16.73
2019-03-22T15:23:13.548Z,14.55
2019-03-22T15:26:01.415Z,17.80
2019-03-22T15:29:02.173Z,15.70
2019-03-22T15:31:50.302Z,16.27
2019-03-22T15:34:38.295Z,19.45
2019-03-22T15:37:33.440Z,17.20
2019-03-22T15:40:04.595Z,15.20
2019-03-22T15:42:35.363Z,16.50
2019-03-22T15:45:07.784Z,18.47
2019-03-22T15:47:38.035Z,16.40
2019-03-22T15:50:09.910Z,17.93
2019-03-22T15:52:40.105Z,18.63
2019-03-22T15:55:11.558Z,19.63
2019-03-22T15:57:41.932Z,20.97
2019-03-22T16:00:15.212Z,19.83
2019-03-22T16:02:45.736Z,17.40
2019-03-22T16:05:16.369Z,16.90
2019-03-22T16:07:47.731Z,18.03
2019-03-22T16:10:18.010Z,15.97
2019-03-22T16:12:48.216Z,18.23
2019-03-22T16:15:18.571Z,19.07
2019-03-22T16:17:48.781Z,14.17
2019-03-22T16:20:19.068Z,18.65
2019-03-22T16:22:49.256Z,17.77
2019-03-22T16:25:19.472Z,18.20
2019-03-22T16:27:49.801Z,18.87
2019-03-22T16:30:20.300Z,16.60
2019-03-22T16:32:50.508Z,18.37
2019-03-22T16:35:20.714Z,17.98
2019-03-22T16:37:51.106Z,17.90
2019-03-22T16:40:24.523Z,18.27
2019-03-22T16:42:53.289Z,21.97
2019-03-22T16:45:40.453Z,17.45
2019-03-22T16:48:10.884Z,17.60
2019-03-22T16:50:42.302Z,16.50
2019-03-22T16:53:12.799Z,18.37
2019-03-22T16:55:42.991Z,17.43
2019-03-22T16:58:13.274Z,17.48
2019-03-22T17:00:43.641Z,16.17
2019-03-22T17:03:13.954Z,16.00
2019-03-22T17:05:44.252Z,18.07
2019-03-22T17:08:14.447Z,19.10
2019-03-22T17:10:44.936Z,16.73
2019-03-22T17:13:15.189Z,22.53
2019-03-22T17:15:45.485Z,19.03
2019-03-22T17:18:15.687Z,22.13
2019-03-22T17:20:45.917Z,19.30
2019-03-22T17:23:16.185Z,18.97
2019-03-22T17:25:46.388Z,15.28
2019-03-22T17:28:16.844Z,19.10
2019-03-22T17:30:47.281Z,18.50
2019-03-22T17:33:17.541Z,23.00
2019-03-22T17:35:48.725Z,20.93
2019-03-22T17:38:19.179Z,22.83
2019-03-22T17:40:49.599Z,21.13
2019-03-22T17:43:19.835Z,59.20
2019-03-22T17:45:50.452Z,57.90
2019-03-22T17:48:20.667Z,71.82
2019-03-22T17:50:50.892Z,55.17
2019-03-22T17:53:21.186Z,41.27
2019-03-22T17:55:52.351Z,37.80
2019-03-22T17:58:22.560Z,45.60
2019-03-22T18:00:52.826Z,43.97
2019-03-22T18:03:24.275Z,35.30
2019-03-22T18:05:54.477Z,35.20
2019-03-22T18:08:24.685Z,38.27
2019-03-22T18:10:54.868Z,36.93
2019-03-22T18:13:25.086Z,30.60
2019-03-22T18:15:55.280Z,28.47
2019-03-22T18:18:25.552Z,30.50
2019-03-22T18:20:56.047Z,25.93
2019-03-22T18:23:35.425Z,19.87
2019-03-22T18:25:58.235Z,18.83
2019-03-22T18:28:28.450Z,16.57
2019-03-22T18:30:58.650Z,15.80
2019-03-22T18:33:29.022Z,17.13
2019-03-22T18:35:59.216Z,14.37
2019-03-22T18:38:29.429Z,15.17
2019-03-22T18:40:59.640Z,15.70
2019-03-22T18:43:29.924Z,11.93
2019-03-22T18:46:00.133Z,12.87
2019-03-22T18:48:30.331Z,13.05
2019-03-22T18:51:00.547Z,12.30
2019-03-22T18:53:31.286Z,12.37
2019-03-22T18:56:01.559Z,13.93
2019-03-22T18:58:31.778Z,12.23
2019-03-22T19:01:02.182Z,11.37
2019-03-22T19:03:32.419Z,10.60
2019-03-22T19:06:02.616Z,11.30
2019-03-22T19:08:43.415Z,13.20
2019-03-22T19:11:13.699Z,13.07
2019-03-22T19:13:44.098Z,12.50
2019-03-22T19:16:14.289Z,14.00
2019-03-22T19:18:44.500Z,12.50
2019-03-22T19:21:14.690Z,14.93
2019-03-22T19:23:45.060Z,29.97
2019-03-22T19:26:15.485Z,24.70
2019-03-22T19:28:45.688Z,23.53
2019-03-22T19:31:15.953Z,28.38
2019-03-22T19:33:46.175Z,26.20
2019-03-22T19:36:16.437Z,27.57
2019-03-22T19:38:46.645Z,21.60
2019-03-22T19:41:16.871Z,18.60
2019-03-22T19:43:47.086Z,17.73
2019-03-22T19:46:17.283Z,15.72
2019-03-22T19:48:47.490Z,15.27
2019-03-22T19:51:17.699Z,15.17
2019-03-22T19:53:48.222Z,15.07
2019-03-22T19:56:18.433Z,14.97
2019-03-22T19:58:48.632Z,14.97
2019-03-22T20:01:19.127Z,32.80
2019-03-22T20:03:49.344Z,27.10
2019-03-22T20:06:19.575Z,26.67
2019-03-22T20:08:49.793Z,19.77
2019-03-22T20:11:20.100Z,20.43
2019-03-22T20:13:50.272Z,19.97
2019-03-22T20:16:20.478Z,17.13
2019-03-22T20:18:50.687Z,19.07
2019-03-22T20:21:20.905Z,23.10
2019-03-22T20:23:53.856Z,19.17
2019-03-22T20:26:23.012Z,20.07
2019-03-22T20:29:10.686Z,19.07
2019-03-22T20:31:40.912Z,22.10
2019-03-22T20:34:11.104Z,22.22
2019-03-22T20:36:43.670Z,22.33
2019-03-22T20:39:13.191Z,19.80
2019-03-22T20:41:43.476Z,20.87
2019-03-22T20:44:13.676Z,24.27
2019-03-22T20:46:44.033Z,21.80
2019-03-22T20:49:14.232Z,21.65
2019-03-22T20:51:44.442Z,20.80
2019-03-22T20:54:15.117Z,21.73
2019-03-22T20:56:45.402Z,22.10
2019-03-22T20:59:15.623Z,19.50
2019-03-22T21:01:46.077Z,20.93
2019-03-22T21:04:16.264Z,22.27
2019-03-22T21:06:46.509Z,22.83
2019-03-22T21:09:16.733Z,25.17
2019-03-22T21:11:47.789Z,22.17
2019-03-22T21:14:17.981Z,21.45
2019-03-22T21:16:49.177Z,19.93
2019-03-22T21:19:19.614Z,22.80
2019-03-22T21:21:49.992Z,20.27
2019-03-22T21:24:20.182Z,24.67
2019-03-22T21:26:50.620Z,23.53
2019-03-22T21:29:20.817Z,23.53
2019-03-22T21:31:51.027Z,23.57
2019-03-22T21:34:21.222Z,23.83
2019-03-22T21:36:51.491Z,22.43
2019-03-22T21:39:21.692Z,24.57
2019-03-22T21:41:51.930Z,31.17
2019-03-22T21:44:22.125Z,33.00
2019-03-22T21:46:52.597Z,29.60
2019-03-22T21:49:22.819Z,30.97
2019-03-22T21:51:53.019Z,32.60
2019-03-22T21:54:23.257Z,28.17
2019-03-22T21:56:53.469Z,28.77
2019-03-22T21:59:23.691Z,31.67
2019-03-22T22:01:53.905Z,33.80
2019-03-22T22:04:24.101Z,41.50
2019-03-22T22:06:54.388Z,53.10
2019-03-22T22:09:24.578Z,56.67
2019-03-22T22:11:55.042Z,56.80
2019-03-22T22:14:25.237Z,57.47
2019-03-22T22:16:55.458Z,54.60
2019-03-22T22:19:25.641Z,51.20
2019-03-22T22:21:56.304Z,53.97
2019-03-22T22:24:27.009Z,54.90
2019-03-22T22:26:57.477Z,51.80
2019-03-22T22:29:27.736Z,52.77
2019-03-22T22:31:58.212Z,54.10
2019-03-22T22:34:29.375Z,52.17
2019-03-22T22:36:59.604Z,51.50
2019-03-22T22:39:29.929Z,56.40
2019-03-22T22:42:00.122Z,53.43
2019-03-22T22:44:30.332Z,62.80
2019-03-22T22:47:00.533Z,58.47
2019-03-22T22:49:30.752Z,59.80
2019-03-22T22:52:01.215Z,59.70
2019-03-22T22:54:31.491Z,64.13
2019-03-22T22:57:01.710Z,61.63
2019-03-22T22:59:31.914Z,58.27
2019-03-22T23:02:02.202Z,64.20
2019-03-22T23:04:32.519Z,66.17
2019-03-22T23:07:07.613Z,66.10
2019-03-22T23:09:40.976Z,72.63
2019-03-22T23:12:11.176Z,79.25
2019-03-22T23:14:41.544Z,71.20
2019-03-22T23:17:11.975Z,75.28
2019-03-22T23:19:42.175Z,75.13
2019-03-22T23:22:12.365Z,76.50
2019-03-22T23:24:42.790Z,79.70
2019-03-22T23:27:13.036Z,76.33
2019-03-22T23:29:44.209Z,73.73
2019-03-22T23:32:14.392Z,75.60
2019-03-22T23:34:44.749Z,74.57
2019-03-22T23:37:14.947Z,81.23
2019-03-22T23:39:45.177Z,86.90
2019-03-22T23:42:15.369Z,89.20
2019-03-22T23:44:45.586Z,88.60
2019-03-22T23:47:15.773Z,90.38
2019-03-22T23:49:46.010Z,91.73
2019-03-22T23:52:16.206Z,100.10
2019-03-22T23:54:46.655Z,98.27
2019-03-22T23:57:16.865Z,112.62
2019-03-22T23:59:47.061Z,88.47
